createdAt,value
2023-08-08T00:02:48.546Z,100383.84
2023-08-08T00:05:51.689Z,100385.06
2023-08-08T00:08:54.442Z,100386.59
2023-08-08T00:11:59.093Z,100381.84
2023-08-08T00:15:02.333Z,100383.03
2023-08-08T00:18:05.893Z,100385.06
2023-08-08T00:21:08.710Z,100389.41
2023-08-08T00:24:11.846Z,100388.63
2023-08-08T00:27:14.890Z,100393.44
2023-08-08T00:30:17.966Z,100389.44
2023-08-08T00:33:20.800Z,100387.81
2023-08-08T00:36:24.242Z,100387.03
2023-08-08T00:39:27.051Z,100389.44
2023-08-08T00:42:30.141Z,100393.00
2023-08-08T00:45:33.144Z,100392.63
2023-08-08T00:48:36.417Z,100398.97
2023-08-08T00:51:39.530Z,100403.78
2023-08-08T00:54:42.777Z,100398.16
2023-08-08T00:57:45.754Z,100396.94
2023-08-08T01:04:27.365Z,100398.56
2023-08-08T01:07:45.535Z,100403.72
2023-08-08T01:10:48.496Z,100404.53
2023-08-08T01:13:53.678Z,100398.53
2023-08-08T01:17:01.328Z,100397.38
2023-08-08T01:20:09.044Z,100395.72
2023-08-08T01:23:25.827Z,100403.72
2023-08-08T01:26:30.625Z,100397.69
2023-08-08T01:29:33.620Z,100397.19
2023-08-08T01:32:36.639Z,100402.38
2023-08-08T01:35:43.300Z,100404.75
2023-08-08T01:38:50.330Z,100416.25
2023-08-08T01:41:55.292Z,100411.47
2023-08-08T01:44:58.984Z,100415.38
2023-08-08T01:48:16.868Z,100415.41
2023-08-08T01:51:19.949Z,100413.81
2023-08-08T01:54:24.420Z,100423.37
2023-08-08T01:57:27.639Z,100417.03
2023-08-08T02:00:31.091Z,100421.75
2023-08-08T02:03:34.752Z,100432.06
2023-08-08T02:06:37.637Z,100429.63
2023-08-08T02:09:41.241Z,100434.00
2023-08-08T02:12:45.843Z,100434.38
2023-08-08T02:15:49.135Z,100432.78
2023-08-08T02:18:52.538Z,100435.53
2023-08-08T02:21:55.594Z,100440.59
2023-08-08T02:24:58.397Z,100440.56
2023-08-08T02:28:01.738Z,100439.72
2023-08-08T02:31:04.871Z,100442.50
2023-08-08T02:34:07.736Z,100437.03
2023-08-08T02:37:10.835Z,100447.75
2023-08-08T02:40:13.625Z,100445.69
2023-08-08T02:43:18.058Z,100449.69
2023-08-08T02:46:21.020Z,100447.34
2023-08-08T02:49:24.635Z,100444.56
2023-08-08T02:52:27.684Z,100453.19
2023-08-08T02:55:30.931Z,100456.47
2023-08-08T02:58:33.830Z,100457.97
2023-08-08T03:01:40.742Z,100461.88
2023-08-08T03:04:44.963Z,100458.22
2023-08-08T03:07:48.185Z,100467.16
2023-08-08T03:10:51.300Z,100471.28
2023-08-08T03:13:54.510Z,100472.13
2023-08-08T03:16:59.258Z,100478.75
2023-08-08T03:20:04.904Z,100480.87
2023-08-08T03:23:07.855Z,100487.19
2023-08-08T03:26:12.618Z,100489.78
2023-08-08T03:29:15.396Z,100492.56
2023-08-08T03:32:19.650Z,100503.69
2023-08-08T03:35:22.655Z,100498.53
2023-08-08T03:38:26.097Z,100509.97
2023-08-08T03:41:29.188Z,100516.25
2023-08-08T03:44:32.464Z,100517.59
2023-08-08T03:47:35.600Z,100525.41
2023-08-08T03:50:38.925Z,100524.91
2023-08-08T03:53:41.725Z,100522.25
2023-08-08T03:56:44.921Z,100528.53
2023-08-08T03:59:48.335Z,100531.22
2023-08-08T04:02:51.672Z,100527.75
2023-08-08T04:05:55.069Z,100528.47
2023-08-08T04:08:57.949Z,100533.25
2023-08-08T04:12:01.406Z,100535.63
2023-08-08T04:15:04.949Z,100525.16
2023-08-08T04:18:08.137Z,100537.69
2023-08-08T04:21:10.994Z,100529.66
2023-08-08T04:24:14.401Z,100539.63
2023-08-08T04:27:17.326Z,100540.22
2023-08-08T04:30:20.673Z,100551.84
2023-08-08T04:33:23.408Z,100549.97
2023-08-08T04:36:26.726Z,100553.72
2023-08-08T04:39:29.552Z,100551.41
2023-08-08T04:42:33.265Z,100564.56
2023-08-08T04:45:36.116Z,100556.34
2023-08-08T04:48:39.583Z,100553.66
2023-08-08T04:51:42.359Z,100556.28
2023-08-08T04:54:45.859Z,100556.44
2023-08-08T04:57:48.697Z,100558.22
2023-08-08T05:00:56.356Z,100558.38
2023-08-08T05:03:59.237Z,100557.34
2023-08-08T05:07:02.439Z,100565.03
2023-08-08T05:10:06.460Z,100571.25
2023-08-08T05:13:10.750Z,100568.91
2023-08-08T05:16:13.772Z,100563.91
2023-08-08T05:19:17.086Z,100571.16
2023-08-08T05:22:19.908Z,100570.94
2023-08-08T05:25:23.199Z,100575.28
2023-08-08T05:28:25.980Z,100568.50
2023-08-08T05:31:29.265Z,100570.66
2023-08-08T05:34:34.309Z,100568.69
2023-08-08T05:37:38.095Z,100572.37
2023-08-08T05:40:41.389Z,100575.16
2023-08-08T05:43:45.822Z,100577.50
2023-08-08T05:46:49.049Z,100580.31
2023-08-08T05:49:52.347Z,100576.22
2023-08-08T05:52:55.136Z,100583.72
2023-08-08T05:55:58.621Z,100576.09
2023-08-08T05:59:01.393Z,100579.97
2023-08-08T06:02:04.795Z,100575.66
2023-08-08T06:05:09.010Z,100581.88
2023-08-08T06:08:13.533Z,100573.56
2023-08-08T06:11:16.857Z,100578.44
2023-08-08T06:14:19.759Z,100572.16
2023-08-08T06:17:24.898Z,100573.31
2023-08-08T06:20:27.869Z,100571.84
2023-08-08T06:23:30.961Z,100582.34
2023-08-08T06:26:33.974Z,100581.09
2023-08-08T06:29:36.997Z,100578.97
2023-08-08T06:32:39.899Z,100592.63
2023-08-08T06:35:43.400Z,100590.56
2023-08-08T06:38:46.373Z,100583.19
2023-08-08T06:41:49.623Z,100582.06
2023-08-08T06:44:54.818Z,100588.59
2023-08-08T06:47:58.473Z,100583.72
2023-08-08T06:51:01.363Z,100583.69
2023-08-08T06:54:04.871Z,100584.16
2023-08-08T06:57:07.844Z,100579.63
2023-08-08T07:00:15.009Z,100582.66
2023-08-08T07:03:17.877Z,100576.16
2023-08-08T07:06:21.706Z,100568.84
2023-08-08T07:09:25.955Z,100578.75
2023-08-08T07:12:29.085Z,100573.38
2023-08-08T07:15:32.514Z,100564.84
2023-08-08T07:18:35.721Z,100574.91
2023-08-08T07:21:38.643Z,100577.66
2023-08-08T07:24:41.724Z,100580.91
2023-08-08T07:27:44.498Z,100574.34
2023-08-08T07:30:47.539Z,100591.38
2023-08-08T07:33:50.360Z,100592.97
2023-08-08T07:36:53.386Z,100585.38
2023-08-08T07:39:56.351Z,100587.59
2023-08-08T07:42:59.435Z,100587.72
2023-08-08T07:46:02.254Z,100597.44
2023-08-08T07:49:06.196Z,100589.37
2023-08-08T07:52:09.309Z,100598.03
2023-08-08T07:55:12.464Z,100600.09
2023-08-08T07:58:15.557Z,100594.91
2023-08-08T08:01:19.805Z,100592.87
2023-08-08T08:04:23.006Z,100590.44
2023-08-08T08:07:25.932Z,100593.97
2023-08-08T08:10:29.188Z,100592.28
2023-08-08T08:13:31.998Z,100600.53
2023-08-08T08:16:35.244Z,100590.06
2023-08-08T08:19:38.475Z,100598.44
2023-08-08T08:22:41.628Z,100591.06
2023-08-08T08:25:44.469Z,100584.66
2023-08-08T08:28:47.654Z,100597.03
2023-08-08T08:31:50.441Z,100585.22
2023-08-08T08:34:53.531Z,100583.50
2023-08-08T08:37:56.361Z,100575.94
2023-08-08T08:41:00.338Z,100581.09
2023-08-08T08:44:05.580Z,100576.81
2023-08-08T08:47:12.282Z,100581.62
2023-08-08T08:50:16.902Z,100571.38
2023-08-08T08:53:20.394Z,100575.34
2023-08-08T08:56:24.296Z,100575.75
2023-08-08T08:59:27.671Z,100568.13
2023-08-08T09:02:30.566Z,100564.41
2023-08-08T09:05:35.150Z,100574.47
2023-08-08T09:08:38.129Z,100571.28
2023-08-08T09:11:42.071Z,100567.78
2023-08-08T09:14:45.103Z,100568.50
2023-08-08T09:17:49.483Z,100575.72
2023-08-08T09:20:52.870Z,100571.75
2023-08-08T09:23:55.996Z,100573.16
2023-08-08T09:26:58.730Z,100565.22
2023-08-08T09:30:02.184Z,100575.53
2023-08-08T09:33:05.625Z,100564.09
2023-08-08T09:36:16.933Z,100575.28
2023-08-08T09:39:19.783Z,100565.31
2023-08-08T09:42:23.086Z,100555.09
2023-08-08T09:45:26.087Z,100555.87
2023-08-08T09:48:33.726Z,100552.22
2023-08-08T09:51:36.909Z,100553.84
2023-08-08T09:54:40.458Z,100561.41
2023-08-08T09:57:43.844Z,100550.75
2023-08-08T10:00:47.574Z,100543.97
2023-08-08T10:03:53.267Z,100549.94
2023-08-08T10:06:56.060Z,100548.84
2023-08-08T10:10:00.765Z,100547.56
2023-08-08T10:13:03.805Z,100540.31
2023-08-08T10:16:10.534Z,100543.72
2023-08-08T10:19:13.801Z,100536.19
2023-08-08T10:22:22.605Z,100541.25
2023-08-08T10:25:28.448Z,100531.91
2023-08-08T10:28:34.649Z,100528.16
2023-08-08T10:31:37.997Z,100526.91
2023-08-08T10:34:46.260Z,100527.44
2023-08-08T10:37:55.922Z,100512.22
2023-08-08T10:41:00.866Z,100519.59
2023-08-08T10:44:10.449Z,100518.75
2023-08-08T10:47:13.681Z,100512.22
2023-08-08T10:50:23.878Z,100512.72
2023-08-08T10:53:28.570Z,100504.44
2023-08-08T10:56:32.466Z,100493.97
2023-08-08T10:59:39.310Z,100490.91
2023-08-08T11:02:42.330Z,100480.66
2023-08-08T11:05:52.510Z,100472.38
2023-08-08T11:08:55.894Z,100472.44
2023-08-08T11:11:59.571Z,100473.59
2023-08-08T11:15:02.584Z,100477.06
2023-08-08T11:18:06.085Z,100470.38
2023-08-08T11:21:18.095Z,100476.41
2023-08-08T11:24:22.543Z,100474.00
2023-08-08T11:30:36.112Z,100476.12
2023-08-08T11:33:39.882Z,100478.53
2023-08-08T11:36:43.085Z,100473.06
2023-08-08T11:39:46.482Z,100473.25
2023-08-08T11:42:51.757Z,100466.06
2023-08-08T11:45:55.142Z,100481.13
2023-08-08T11:49:07.825Z,100485.41
2023-08-08T11:52:10.975Z,100470.13
2023-08-08T11:55:14.536Z,100483.59
2023-08-08T11:58:18.581Z,100483.69
2023-08-08T12:01:26.255Z,100500.97
2023-08-08T12:04:29.478Z,100513.00
2023-08-08T12:07:34.899Z,100505.44
2023-08-08T12:10:38.002Z,100524.50
2023-08-08T12:13:43.037Z,100529.44
2023-08-08T12:16:46.186Z,100527.31
2023-08-08T12:19:49.670Z,100520.38
2023-08-08T12:22:53.053Z,100528.47
2023-08-08T12:25:55.956Z,100527.12
2023-08-08T12:28:59.085Z,100521.97
2023-08-08T12:32:03.919Z,100517.22
2023-08-08T12:35:07.742Z,100517.06
2023-08-08T12:38:11.688Z,100507.69
2023-08-08T12:41:14.965Z,100509.47
2023-08-08T12:44:17.775Z,100505.47
2023-08-08T12:47:22.430Z,100496.28
2023-08-08T12:50:25.236Z,100489.59
2023-08-08T12:53:28.762Z,100487.06
2023-08-08T12:56:31.811Z,100478.72
2023-08-08T12:59:34.836Z,100475.34
2023-08-08T13:02:38.918Z,100486.84
2023-08-08T13:05:42.251Z,100476.03
2023-08-08T13:08:45.082Z,100482.34
2023-08-08T13:11:48.277Z,100473.47
2023-08-08T13:14:51.013Z,100464.97
2023-08-08T13:17:54.173Z,100459.22
2023-08-08T13:20:56.933Z,100450.22
2023-08-08T13:24:00.118Z,100443.31
2023-08-08T13:27:02.930Z,100435.75
2023-08-08T13:30:07.200Z,100448.06
2023-08-08T13:33:10.969Z,100441.00
2023-08-08T13:36:14.152Z,100442.62
2023-08-08T13:39:16.904Z,100429.09
2023-08-08T13:42:19.989Z,100429.19
2023-08-08T13:45:23.950Z,100425.09
2023-08-08T13:48:27.038Z,100422.97
2023-08-08T13:51:29.744Z,100425.69
2023-08-08T13:54:33.121Z,100405.78
2023-08-08T13:57:36.317Z,100407.25
2023-08-08T14:00:39.500Z,100410.28
2023-08-08T14:03:42.956Z,100415.56
2023-08-08T14:06:46.544Z,100420.13
2023-08-08T14:09:49.797Z,100408.62
2023-08-08T14:12:52.649Z,100408.81
2023-08-08T14:15:55.759Z,100415.25
2023-08-08T14:18:58.635Z,100404.94
2023-08-08T14:22:02.160Z,100405.59
2023-08-08T14:25:07.403Z,100408.31
2023-08-08T14:28:10.552Z,100406.56
2023-08-08T14:31:13.421Z,100404.09
2023-08-08T14:34:17.172Z,100406.06
2023-08-08T14:37:20.069Z,100404.56
2023-08-08T14:40:23.226Z,100405.69
2023-08-08T14:43:26.012Z,100398.91
2023-08-08T14:46:30.853Z,100399.25
2023-08-08T14:49:33.751Z,100403.22
2023-08-08T14:52:36.814Z,100401.06
2023-08-08T14:55:39.833Z,100392.91
2023-08-08T14:58:43.247Z,100402.53
2023-08-08T15:01:46.304Z,100398.69
2023-08-08T15:04:50.692Z,100394.06
2023-08-08T15:07:53.569Z,100384.41
2023-08-08T15:10:58.067Z,100395.50
2023-08-08T15:14:00.859Z,100392.91
2023-08-08T15:17:04.060Z,100393.91
2023-08-08T15:20:07.826Z,100383.13
2023-08-08T15:23:11.700Z,100391.78
2023-08-08T15:26:14.629Z,100382.69
2023-08-08T15:29:17.816Z,100377.53
2023-08-08T15:32:20.604Z,100372.00
2023-08-08T15:35:26.090Z,100367.22
2023-08-08T15:38:29.619Z,100361.09
2023-08-08T15:41:32.691Z,100367.81
2023-08-08T15:44:35.525Z,100361.47
2023-08-08T15:47:39.934Z,100353.53
2023-08-08T15:50:42.833Z,100371.00
2023-08-08T15:53:45.930Z,100356.88
2023-08-08T15:56:48.755Z,100361.06
2023-08-08T15:59:51.748Z,100356.38
2023-08-08T16:02:54.732Z,100358.44
2023-08-08T16:05:58.219Z,100361.16
2023-08-08T16:09:01.011Z,100359.81
2023-08-08T16:12:04.301Z,100366.06
2023-08-08T16:15:08.566Z,100364.12
2023-08-08T16:18:11.942Z,100358.75
2023-08-08T16:21:14.812Z,100366.19
2023-08-08T16:24:17.797Z,100365.47
2023-08-08T16:27:20.574Z,100362.22
2023-08-08T16:30:23.535Z,100370.88
2023-08-08T16:33:26.428Z,100367.25
2023-08-08T16:36:29.760Z,100369.09
2023-08-08T16:39:32.617Z,100370.41
2023-08-08T16:42:35.724Z,100369.97
2023-08-08T16:45:38.914Z,100375.50
2023-08-08T16:48:42.233Z,100367.78
2023-08-08T16:51:45.012Z,100367.97
2023-08-08T16:54:48.659Z,100360.53
2023-08-08T16:57:51.528Z,100366.00
2023-08-08T17:00:55.486Z,100366.88
2023-08-08T17:03:58.951Z,100369.84
2023-08-08T17:07:02.420Z,100358.28
2023-08-08T17:10:06.993Z,100355.97
2023-08-08T17:13:12.266Z,100361.75
2023-08-08T17:16:17.282Z,100365.09
2023-08-08T17:19:20.940Z,100368.44
2023-08-08T17:22:24.060Z,100373.50
2023-08-08T17:25:27.729Z,100362.59
2023-08-08T17:28:31.557Z,100369.44
2023-08-08T17:31:36.633Z,100372.78
2023-08-08T17:34:40.255Z,100371.34
2023-08-08T17:37:43.984Z,100377.53
2023-08-08T17:40:46.960Z,100368.16
2023-08-08T17:43:50.491Z,100376.28
2023-08-08T17:46:54.661Z,100367.72
2023-08-08T17:49:59.033Z,100377.06
2023-08-08T17:53:02.292Z,100374.84
2023-08-08T17:56:07.982Z,100367.34
2023-08-08T17:59:11.593Z,100374.69
2023-08-08T18:02:15.952Z,100372.06
2023-08-08T18:05:19.546Z,100373.44
2023-08-08T18:08:22.685Z,100375.97
2023-08-08T18:11:26.248Z,100370.00
2023-08-08T18:14:40.078Z,100378.97
2023-08-08T18:17:48.160Z,100382.72
2023-08-08T18:20:52.241Z,100373.63
2023-08-08T18:23:57.038Z,100376.94
2023-08-08T18:27:07.402Z,100381.72
2023-08-08T18:30:11.988Z,100386.22
2023-08-08T18:33:15.794Z,100378.56
2023-08-08T18:36:23.250Z,100381.38
2023-08-08T18:39:26.724Z,100373.78
2023-08-08T18:42:32.670Z,100379.00
2023-08-08T18:45:36.180Z,100385.00
2023-08-08T18:48:41.388Z,100390.25
2023-08-08T18:51:48.490Z,100391.84
2023-08-08T18:54:52.471Z,100394.31
2023-08-08T18:57:58.603Z,100398.25
2023-08-08T19:01:05.321Z,100392.87
2023-08-08T19:04:08.964Z,100390.72
2023-08-08T19:07:14.674Z,100401.03
2023-08-08T19:10:18.492Z,100396.69
2023-08-08T19:13:23.084Z,100405.06
2023-08-08T19:16:27.107Z,100403.13
2023-08-08T19:19:32.867Z,100401.47
2023-08-08T19:22:36.523Z,100400.88
2023-08-08T19:25:40.975Z,100399.25
2023-08-08T19:28:46.598Z,100404.50
2023-08-08T19:31:51.631Z,100400.66
2023-08-08T19:34:55.010Z,100401.56
2023-08-08T19:37:59.461Z,100407.28
2023-08-08T19:41:02.670Z,100401.34
2023-08-08T19:44:06.750Z,100401.88
2023-08-08T19:47:13.520Z,100405.47
2023-08-08T19:50:18.250Z,100404.31
2023-08-08T19:53:21.775Z,100418.00
2023-08-08T19:56:25.452Z,100403.25
2023-08-08T19:59:29.036Z,100410.09
2023-08-08T20:02:33.380Z,100410.84
2023-08-08T20:05:37.494Z,100408.91
2023-08-08T20:08:41.571Z,100420.41
2023-08-08T20:11:44.925Z,100420.03
2023-08-08T20:14:48.599Z,100430.13
2023-08-08T20:17:53.182Z,100424.53
2023-08-08T20:20:56.273Z,100429.25
2023-08-08T20:23:59.907Z,100434.47
2023-08-08T20:27:03.510Z,100430.88
2023-08-08T20:30:08.038Z,100434.97
2023-08-08T20:33:11.783Z,100429.38
2023-08-08T20:36:16.055Z,100436.63
2023-08-08T20:39:19.984Z,100433.50
2023-08-08T20:42:24.142Z,100427.50
2023-08-08T20:45:27.918Z,100423.87
2023-08-08T20:48:31.946Z,100428.66
2023-08-08T20:51:35.037Z,100420.72
2023-08-08T20:54:38.379Z,100426.41
2023-08-08T20:57:41.146Z,100420.13
2023-08-08T21:00:44.690Z,100425.69
2023-08-08T21:03:47.573Z,100423.75
2023-08-08T21:06:51.091Z,100432.19
2023-08-08T21:09:53.957Z,100423.37
2023-08-08T21:12:57.090Z,100423.37
2023-08-08T21:15:59.982Z,100426.19
2023-08-08T21:19:03.126Z,100430.56
2023-08-08T21:22:05.813Z,100428.19
2023-08-08T21:25:10.030Z,100423.31
2023-08-08T21:28:13.416Z,100432.59
2023-08-08T21:31:17.229Z,100437.34
2023-08-08T21:34:19.968Z,100431.00
2023-08-08T21:37:23.111Z,100435.00
2023-08-08T21:40:25.829Z,100424.97
2023-08-08T21:43:29.407Z,100430.94
2023-08-08T21:46:32.267Z,100432.16
2023-08-08T21:49:35.338Z,100422.12
2023-08-08T21:52:38.149Z,100428.91
2023-08-08T21:55:41.230Z,100428.91
2023-08-08T21:58:44.065Z,100424.13
2023-08-08T22:01:47.272Z,100420.97
2023-08-08T22:04:52.260Z,100427.37
2023-08-08T22:08:00.279Z,100427.03
2023-08-08T22:11:03.417Z,100427.88
2023-08-08T22:14:06.402Z,100427.88
2023-08-08T22:17:09.527Z,100426.69
2023-08-08T22:20:12.598Z,100426.69
2023-08-08T22:23:20.309Z,100420.25
2023-08-08T22:26:24.278Z,100425.09
2023-08-08T22:29:27.229Z,100427.88
2023-08-08T22:32:30.057Z,100421.06
2023-08-08T22:35:33.202Z,100426.72
2023-08-08T22:38:35.966Z,100416.84
2023-08-08T22:41:39.878Z,100425.62
2023-08-08T22:44:42.622Z,100419.22
2023-08-08T22:47:45.753Z,100424.03
2023-08-08T22:50:48.918Z,100430.06
2023-08-08T22:53:52.321Z,100415.72
2023-08-08T22:56:55.128Z,100414.13
2023-08-08T22:59:58.260Z,100418.94
2023-08-08T23:03:01.274Z,100420.13
2023-08-08T23:06:04.343Z,100412.91
2023-08-08T23:09:07.151Z,100408.94
2023-08-08T23:12:10.114Z,100420.53
2023-08-08T23:15:12.974Z,100416.97
2023-08-08T23:18:16.686Z,100418.97
2023-08-08T23:21:19.601Z,100420.97
2023-08-08T23:24:22.602Z,100413.37
2023-08-08T23:27:25.305Z,100421.00
2023-08-08T23:30:28.751Z,100414.22
2023-08-08T23:33:31.588Z,100411.44
2023-08-08T23:36:34.648Z,100407.81
2023-08-08T23:39:37.738Z,100411.81
2023-08-08T23:42:40.782Z,100403.84
2023-08-08T23:45:43.602Z,100400.25
2023-08-08T23:48:48.415Z,100405.44
2023-08-08T23:51:51.256Z,100408.19
2023-08-08T23:54:54.263Z,100403.03
2023-08-08T23:57:57.256Z,100402.22
